sensor_id;sensor_type;location;lat;lon;timestamp;temperature;humidity
27224;DHT22;14965;50.660;13.226;2023-04-24T02:06:25;10.60;99.90
27224;DHT22;14965;50.660;13.226;2023-04-24T02:08:51;10.60;99.90
27224;DHT22;14965;50.660;13.226;2023-04-24T02:11:18;10.60;99.90
27224;DHT22;14965;50.660;13.226;2023-04-24T02:13:44;10.50;99.90
27224;DHT22;14965;50.660;13.226;2023-04-24T02:16:11;10.50;99.90
27224;DHT22;14965;50.660;13.226;2023-04-24T02:18:37;10.50;99.90
27224;DHT22;14965;50.660;13.226;2023-04-24T02:21:03;10.50;99.90
27224;DHT22;14965;50.660;13.226;2023-04-24T02:23:31;10.50;99.90
27224;DHT22;14965;50.660;13.226;2023-04-24T02:25:57;10.50;99.90
27224;DHT22;14965;50.660;13.226;2023-04-24T02:28:24;10.50;99.90
27224;DHT22;14965;50.660;13.226;2023-04-24T02:30:50;10.50;99.90
27224;DHT22;14965;50.660;13.226;2023-04-24T02:33:16;10.40;99.90
27224;DHT22;14965;50.660;13.226;2023-04-24T02:35:43;10.40;99.90
27224;DHT22;14965;50.660;13.226;2023-04-24T02:38:09;10.50;99.90
27224;DHT22;14965;50.660;13.226;2023-04-24T02:40:37;10.40;99.90
27224;DHT22;14965;50.660;13.226;2023-04-24T02:43:03;10.40;99.90
27224;DHT22;14965;50.660;13.226;2023-04-24T02:45:29;10.40;99.90
27224;DHT22;14965;50.660;13.226;2023-04-24T02:47:56;10.40;99.90
27224;DHT22;14965;50.660;13.226;2023-04-24T02:50:22;10.40;99.90
27224;DHT22;14965;50.660;13.226;2023-04-24T02:52:48;10.40;99.90
27224;DHT22;14965;50.660;13.226;2023-04-24T02:55:15;10.40;99.90
27224;DHT22;14965;50.660;13.226;2023-04-24T02:57:43;10.50;99.90
27224;DHT22;14965;50.660;13.226;2023-04-24T03:00:10;10.30;99.90
27224;DHT22;14965;50.660;13.226;2023-04-24T03:02:37;10.30;99.90
27224;DHT22;14965;50.660;13.226;2023-04-24T03:05:04;10.30;99.90
27224;DHT22;14965;50.660;13.226;2023-04-24T03:07:31;10.30;99.90
27224;DHT22;14965;50.660;13.226;2023-04-24T03:09:57;10.20;99.90
27224;DHT22;14965;50.660;13.226;2023-04-24T03:12:24;10.30;99.90
27224;DHT22;14965;50.660;13.226;2023-04-24T03:14:51;10.30;99.90
27224;DHT22;14965;50.660;13.226;2023-04-24T03:17:18;10.30;99.90
27224;DHT22;14965;50.660;13.226;2023-04-24T03:19:44;10.20;99.90
27224;DHT22;14965;50.660;13.226;2023-04-24T03:22:10;10.20;99.90
27224;DHT22;14965;50.660;13.226;2023-04-24T03:24:37;10.20;99.90
27224;DHT22;14965;50.660;13.226;2023-04-24T03:27:03;10.20;99.90
27224;DHT22;14965;50.660;13.226;2023-04-24T03:29:30;10.10;99.90
27224;DHT22;14965;50.660;13.226;2023-04-24T03:31:58;10.00;99.90
27224;DHT22;14965;50.660;13.226;2023-04-24T03:34:24;10.00;99.90
27224;DHT22;14965;50.660;13.226;2023-04-24T03:36:51;10.00;99.90
27224;DHT22;14965;50.660;13.226;2023-04-24T03:39:17;10.00;99.90
27224;DHT22;14965;50.660;13.226;2023-04-24T03:41:43;10.00;99.90
27224;DHT22;14965;50.660;13.226;2023-04-24T03:44:09;9.90;99.90
27224;DHT22;14965;50.660;13.226;2023-04-24T03:46:36;9.90;99.90
27224;DHT22;14965;50.660;13.226;2023-04-24T03:49:04;9.90;99.90
27224;DHT22;14965;50.660;13.226;2023-04-24T03:51:30;9.90;99.90
27224;DHT22;14965;50.660;13.226;2023-04-24T03:53:56;9.80;99.90
27224;DHT22;14965;50.660;13.226;2023-04-24T03:56:23;9.90;99.90
27224;DHT22;14965;50.660;13.226;2023-04-24T03:58:52;9.80;99.90
27224;DHT22;14965;50.660;13.226;2023-04-24T04:01:18;9.70;99.90
27224;DHT22;14965;50.660;13.226;2023-04-24T04:03:45;9.80;99.90
27224;DHT22;14965;50.660;13.226;2023-04-24T04:06:13;9.70;99.90
27224;DHT22;14965;50.660;13.226;2023-04-24T04:08:39;9.70;99.90
27224;DHT22;14965;50.660;13.226;2023-04-24T04:11:05;9.80;99.90
27224;DHT22;14965;50.660;13.226;2023-04-24T04:13:32;9.70;99.90
27224;DHT22;14965;50.660;13.226;2023-04-24T04:15:58;9.70;99.90
27224;DHT22;14965;50.660;13.226;2023-04-24T04:18:24;9.70;99.90
27224;DHT22;14965;50.660;13.226;2023-04-24T04:20:51;9.70;99.90
27224;DHT22;14965;50.660;13.226;2023-04-24T04:23:18;9.70;99.90
27224;DHT22;14965;50.660;13.226;2023-04-24T04:25:45;9.80;99.90
27224;DHT22;14965;50.660;13.226;2023-04-24T04:28:11;9.80;99.90
27224;DHT22;14965;50.660;13.226;2023-04-24T04:30:38;9.90;99.90
27224;DHT22;14965;50.660;13.226;2023-04-24T04:33:04;10.00;99.90
27224;DHT22;14965;50.660;13.226;2023-04-24T04:35:31;10.00;99.90
27224;DHT22;14965;50.660;13.226;2023-04-24T04:37:57;10.10;99.90
27224;DHT22;14965;50.660;13.226;2023-04-24T04:40:25;10.10;99.90
27224;DHT22;14965;50.660;13.226;2023-04-24T04:42:51;10.10;99.90
27224;DHT22;14965;50.660;13.226;2023-04-24T04:45:18;10.10;99.90
27224;DHT22;14965;50.660;13.226;2023-04-24T04:47:44;10.10;99.90
27224;DHT22;14965;50.660;13.226;2023-04-24T04:50:11;10.30;99.90
27224;DHT22;14965;50.660;13.226;2023-04-24T04:52:37;10.70;99.90
27224;DHT22;14965;50.660;13.226;2023-04-24T04:55:04;11.40;99.90
27224;DHT22;14965;50.660;13.226;2023-04-24T04:57:37;11.70;99.90
27224;DHT22;14965;50.660;13.226;2023-04-24T05:00:05;11.70;99.90
27224;DHT22;14965;50.660;13.226;2023-04-24T05:02:32;11.50;99.90
27224;DHT22;14965;50.660;13.226;2023-04-24T05:04:58;11.30;99.90
27224;DHT22;14965;50.660;13.226;2023-04-24T05:07:25;11.00;99.90
27224;DHT22;14965;50.660;13.226;2023-04-24T05:09:53;10.90;99.90
27224;DHT22;14965;50.660;13.226;2023-04-24T05:12:20;10.70;99.90
27224;DHT22;14965;50.660;13.226;2023-04-24T05:14:49;10.60;99.90
27224;DHT22;14965;50.660;13.226;2023-04-24T05:17:15;10.60;99.90
27224;DHT22;14965;50.660;13.226;2023-04-24T05:19:42;10.50;99.90
27224;DHT22;14965;50.660;13.226;2023-04-24T05:22:11;10.50;99.90
27224;DHT22;14965;50.660;13.226;2023-04-24T05:24:38;10.50;99.90
27224;DHT22;14965;50.660;13.226;2023-04-24T05:27:04;10.50;99.90
27224;DHT22;14965;50.660;13.226;2023-04-24T05:29:33;10.50;99.90
27224;DHT22;14965;50.660;13.226;2023-04-24T05:32:05;10.50;99.90
27224;DHT22;14965;50.660;13.226;2023-04-24T05:34:32;10.60;99.90
27224;DHT22;14965;50.660;13.226;2023-04-24T05:36:59;10.60;99.90
27224;DHT22;14965;50.660;13.226;2023-04-24T05:39:27;10.60;99.90
27224;DHT22;14965;50.660;13.226;2023-04-24T05:41:56;10.60;99.90
27224;DHT22;14965;50.660;13.226;2023-04-24T05:44:24;10.70;99.90
27224;DHT22;14965;50.660;13.226;2023-04-24T05:46:52;10.80;99.90
27224;DHT22;14965;50.660;13.226;2023-04-24T05:49:21;10.90;99.90
27224;DHT22;14965;50.660;13.226;2023-04-24T05:51:49;11.00;99.90
27224;DHT22;14965;50.660;13.226;2023-04-24T05:54:19;11.10;99.90
27224;DHT22;14965;50.660;13.226;2023-04-24T05:56:47;11.20;99.90
27224;DHT22;14965;50.660;13.226;2023-04-24T05:59:14;11.30;99.90
27224;DHT22;14965;50.660;13.226;2023-04-24T06:01:43;11.30;99.90
27224;DHT22;14965;50.660;13.226;2023-04-24T06:04:10;11.40;99.90
27224;DHT22;14965;50.660;13.226;2023-04-24T06:06:43;11.50;99.90
27224;DHT22;14965;50.660;13.226;2023-04-24T06:09:11;11.60;99.90
27224;DHT22;14965;50.660;13.226;2023-04-24T06:11:39;11.60;99.90
27224;DHT22;14965;50.660;13.226;2023-04-24T06:14:07;11.60;99.90
27224;DHT22;14965;50.660;13.226;2023-04-24T06:16:34;11.60;99.90
27224;DHT22;14965;50.660;13.226;2023-04-24T06:19:01;11.60;99.90
27224;DHT22;14965;50.660;13.226;2023-04-24T06:21:28;11.60;99.90
27224;DHT22;14965;50.660;13.226;2023-04-24T06:23:56;11.70;99.90
27224;DHT22;14965;50.660;13.226;2023-04-24T06:26:23;11.80;99.90
27224;DHT22;14965;50.660;13.226;2023-04-24T06:28:50;11.70;99.90
27224;DHT22;14965;50.660;13.226;2023-04-24T06:31:18;11.90;99.90
27224;DHT22;14965;50.660;13.226;2023-04-24T06:33:45;12.00;99.90
27224;DHT22;14965;50.660;13.226;2023-04-24T06:36:12;12.10;99.90
27224;DHT22;14965;50.660;13.226;2023-04-24T06:38:40;12.20;99.90
27224;DHT22;14965;50.660;13.226;2023-04-24T06:41:09;12.10;99.90
27224;DHT22;14965;50.660;13.226;2023-04-24T06:43:35;12.10;99.90
27224;DHT22;14965;50.660;13.226;2023-04-24T06:46:03;12.10;99.90
27224;DHT22;14965;50.660;13.226;2023-04-24T06:48:30;12.10;99.90
27224;DHT22;14965;50.660;13.226;2023-04-24T06:50:57;12.10;99.90
27224;DHT22;14965;50.660;13.226;2023-04-24T06:53:23;12.20;99.90
27224;DHT22;14965;50.660;13.226;2023-04-24T06:55:49;12.20;99.90
27224;DHT22;14965;50.660;13.226;2023-04-24T07:04:55;12.60;99.90
27224;DHT22;14965;50.660;13.226;2023-04-24T07:07:21;12.50;99.90
27224;DHT22;14965;50.660;13.226;2023-04-24T07:09:47;12.50;99.90
27224;DHT22;14965;50.660;13.226;2023-04-24T07:12:13;12.50;99.90
27224;DHT22;14965;50.660;13.226;2023-04-24T07:14:39;12.50;99.90
27224;DHT22;14965;50.660;13.226;2023-04-24T07:17:06;12.50;99.90
27224;DHT22;14965;50.660;13.226;2023-04-24T07:19:34;12.40;99.90
27224;DHT22;14965;50.660;13.226;2023-04-24T07:22:04;12.20;99.90
27224;DHT22;14965;50.660;13.226;2023-04-24T07:24:30;12.20;99.90
27224;DHT22;14965;50.660;13.226;2023-04-24T07:26:56;12.10;99.90
27224;DHT22;14965;50.660;13.226;2023-04-24T07:29:23;12.20;99.90
27224;DHT22;14965;50.660;13.226;2023-04-24T07:31:51;12.20;99.90
27224;DHT22;14965;50.660;13.226;2023-04-24T07:34:23;12.10;99.90
27224;DHT22;14965;50.660;13.226;2023-04-24T07:37:04;12.00;99.90
27224;DHT22;14965;50.660;13.226;2023-04-24T07:39:32;12.10;99.90
27224;DHT22;14965;50.660;13.226;2023-04-24T07:42:03;12.20;99.90
27224;DHT22;14965;50.660;13.226;2023-04-24T07:44:29;12.20;99.90
27224;DHT22;14965;50.660;13.226;2023-04-24T07:46:56;12.20;99.90
27224;DHT22;14965;50.660;13.226;2023-04-24T07:49:22;12.10;99.90
27224;DHT22;14965;50.660;13.226;2023-04-24T07:51:49;12.00;99.90
27224;DHT22;14965;50.660;13.226;2023-04-24T07:54:16;12.10;99.90
27224;DHT22;14965;50.660;13.226;2023-04-24T07:56:45;12.10;99.90
27224;DHT22;14965;50.660;13.226;2023-04-24T08:13:48;12.30;99.90
27224;DHT22;14965;50.660;13.226;2023-04-24T08:16:15;12.50;99.90
27224;DHT22;14965;50.660;13.226;2023-04-24T08:18:43;12.40;99.90
27224;DHT22;14965;50.660;13.226;2023-04-24T08:21:09;12.50;99.90
27224;DHT22;14965;50.660;13.226;2023-04-24T08:23:35;12.60;99.90
27224;DHT22;14965;50.660;13.226;2023-04-24T08:26:01;12.60;99.90
27224;DHT22;14965;50.660;13.226;2023-04-24T08:28:27;12.70;99.90
27224;DHT22;14965;50.660;13.226;2023-04-24T08:30:54;12.40;99.90
27224;DHT22;14965;50.660;13.226;2023-04-24T08:33:21;12.40;99.90
27224;DHT22;14965;50.660;13.226;2023-04-24T08:35:47;12.40;99.90
27224;DHT22;14965;50.660;13.226;2023-04-24T08:38:24;12.30;99.90
27224;DHT22;14965;50.660;13.226;2023-04-24T08:45:34;12.30;99.90
27224;DHT22;14965;50.660;13.226;2023-04-24T08:52:31;12.40;99.90
27224;DHT22;14965;50.660;13.226;2023-04-24T08:55:03;12.60;99.90
27224;DHT22;14965;50.660;13.226;2023-04-24T08:57:50;12.70;99.90
27224;DHT22;14965;50.660;13.226;2023-04-24T09:00:42;12.80;99.90
27224;DHT22;14965;50.660;13.226;2023-04-24T09:03:09;12.90;99.90
27224;DHT22;14965;50.660;13.226;2023-04-24T09:05:38;13.00;99.90
27224;DHT22;14965;50.660;13.226;2023-04-24T09:08:13;13.00;99.90
27224;DHT22;14965;50.660;13.226;2023-04-24T09:10:58;13.10;99.90
27224;DHT22;14965;50.660;13.226;2023-04-24T09:13:35;13.20;99.90
27224;DHT22;14965;50.660;13.226;2023-04-24T09:16:02;13.30;99.90
27224;DHT22;14965;50.660;13.226;2023-04-24T09:21:21;13.30;99.90
27224;DHT22;14965;50.660;13.226;2023-04-24T09:23:57;13.30;99.90
27224;DHT22;14965;50.660;13.226;2023-04-24T09:26:24;13.20;99.90
27224;DHT22;14965;50.660;13.226;2023-04-24T09:28:50;13.20;99.90
27224;DHT22;14965;50.660;13.226;2023-04-24T09:31:22;13.30;99.90
27224;DHT22;14965;50.660;13.226;2023-04-24T09:33:54;13.40;99.90
27224;DHT22;14965;50.660;13.226;2023-04-24T09:46:34;12.80;99.90
27224;DHT22;14965;50.660;13.226;2023-04-24T09:49:08;13.00;99.90
27224;DHT22;14965;50.660;13.226;2023-04-24T09:51:37;13.20;99.90
27224;DHT22;14965;50.660;13.226;2023-04-24T09:54:04;13.20;99.90
27224;DHT22;14965;50.660;13.226;2023-04-24T09:56:42;13.20;99.90
27224;DHT22;14965;50.660;13.226;2023-04-24T09:59:09;13.10;99.90
27224;DHT22;14965;50.660;13.226;2023-04-24T10:01:36;13.00;99.90
27224;DHT22;14965;50.660;13.226;2023-04-24T10:04:02;12.70;99.90
27224;DHT22;14965;50.660;13.226;2023-04-24T10:06:34;12.70;99.90
27224;DHT22;14965;50.660;13.226;2023-04-24T10:09:01;12.80;99.90
27224;DHT22;14965;50.660;13.226;2023-04-24T10:11:28;13.10;99.90
27224;DHT22;14965;50.660;13.226;2023-04-24T10:13:55;13.40;99.90
27224;DHT22;14965;50.660;13.226;2023-04-24T10:16:22;13.70;99.90
27224;DHT22;14965;50.660;13.226;2023-04-24T10:18:50;13.80;99.90
27224;DHT22;14965;50.660;13.226;2023-04-24T10:21:18;13.90;99.90
27224;DHT22;14965;50.660;13.226;2023-04-24T10:23:44;13.90;99.90
27224;DHT22;14965;50.660;13.226;2023-04-24T10:26:12;13.90;99.90
27224;DHT22;14965;50.660;13.226;2023-04-24T10:28:39;13.80;99.90
27224;DHT22;14965;50.660;13.226;2023-04-24T10:31:07;13.80;99.90
27224;DHT22;14965;50.660;13.226;2023-04-24T10:33:35;13.70;99.90
27224;DHT22;14965;50.660;13.226;2023-04-24T10:36:03;13.90;99.90
27224;DHT22;14965;50.660;13.226;2023-04-24T10:38:30;14.30;99.90
27224;DHT22;14965;50.660;13.226;2023-04-24T10:41:07;14.40;99.90
27224;DHT22;14965;50.660;13.226;2023-04-24T10:43:34;14.30;99.90
27224;DHT22;14965;50.660;13.226;2023-04-24T10:46:01;14.10;99.90
27224;DHT22;14965;50.660;13.226;2023-04-24T10:48:29;14.10;99.90
27224;DHT22;14965;50.660;13.226;2023-04-24T10:50:55;14.10;99.90
27224;DHT22;14965;50.660;13.226;2023-04-24T10:53:24;13.90;99.90
27224;DHT22;14965;50.660;13.226;2023-04-24T10:55:58;13.70;99.90
27224;DHT22;14965;50.660;13.226;2023-04-24T10:58:36;13.70;99.90
27224;DHT22;14965;50.660;13.226;2023-04-24T11:01:04;13.70;99.90
27224;DHT22;14965;50.660;13.226;2023-04-24T11:03:32;13.70;99.90
27224;DHT22;14965;50.660;13.226;2023-04-24T11:06:01;13.90;99.90
27224;DHT22;14965;50.660;13.226;2023-04-24T11:08:39;13.80;99.90
27224;DHT22;14965;50.660;13.226;2023-04-24T11:11:10;13.70;99.90
27224;DHT22;14965;50.660;13.226;2023-04-24T11:14:13;13.50;99.90
27224;DHT22;14965;50.660;13.226;2023-04-24T11:16:44;13.50;99.90
27224;DHT22;14965;50.660;13.226;2023-04-24T11:19:20;13.90;99.90
27224;DHT22;14965;50.660;13.226;2023-04-24T11:21:49;14.40;99.90
27224;DHT22;14965;50.660;13.226;2023-04-24T11:24:27;14.40;99.90
27224;DHT22;14965;50.660;13.226;2023-04-24T11:26:59;14.20;99.90
27224;DHT22;14965;50.660;13.226;2023-04-24T11:29:42;14.00;99.90
27224;DHT22;14965;50.660;13.226;2023-04-24T11:32:27;13.90;99.90
27224;DHT22;14965;50.660;13.226;2023-04-24T11:34:56;13.70;99.90
27224;DHT22;14965;50.660;13.226;2023-04-24T11:37:24;13.50;99.90
27224;DHT22;14965;50.660;13.226;2023-04-24T11:39:55;13.50;99.90
27224;DHT22;14965;50.660;13.226;2023-04-24T11:42:23;13.60;99.90
27224;DHT22;14965;50.660;13.226;2023-04-24T11:44:49;13.70;99.90
27224;DHT22;14965;50.660;13.226;2023-04-24T11:47:17;13.70;99.90
27224;DHT22;14965;50.660;13.226;2023-04-24T11:49:43;13.80;99.90
27224;DHT22;14965;50.660;13.226;2023-04-24T11:52:10;13.60;99.90
27224;DHT22;14965;50.660;13.226;2023-04-24T11:54:37;13.50;99.90
27224;DHT22;14965;50.660;13.226;2023-04-24T11:57:10;13.50;99.90
27224;DHT22;14965;50.660;13.226;2023-04-24T11:59:37;13.40;99.90
27224;DHT22;14965;50.660;13.226;2023-04-24T12:02:03;13.20;99.90
27224;DHT22;14965;50.660;13.226;2023-04-24T12:04:38;13.00;99.90
27224;DHT22;14965;50.660;13.226;2023-04-24T12:07:05;13.00;99.90
27224;DHT22;14965;50.660;13.226;2023-04-24T12:09:41;12.90;99.90
27224;DHT22;14965;50.660;13.226;2023-04-24T12:12:07;13.00;99.90
27224;DHT22;14965;50.660;13.226;2023-04-24T12:14:43;13.00;99.90
27224;DHT22;14965;50.660;13.226;2023-04-24T12:17:23;13.00;99.90
27224;DHT22;14965;50.660;13.226;2023-04-24T12:22:54;13.20;99.90
27224;DHT22;14965;50.660;13.226;2023-04-24T12:25:28;13.40;99.90
27224;DHT22;14965;50.660;13.226;2023-04-24T12:28:12;13.60;99.90
27224;DHT22;14965;50.660;13.226;2023-04-24T12:30:41;13.70;99.90
27224;DHT22;14965;50.660;13.226;2023-04-24T12:33:11;13.80;99.90
27224;DHT22;14965;50.660;13.226;2023-04-24T12:35:39;13.70;99.90
27224;DHT22;14965;50.660;13.226;2023-04-24T12:38:08;13.50;99.90
27224;DHT22;14965;50.660;13.226;2023-04-24T12:40:36;13.60;99.90
27224;DHT22;14965;50.660;13.226;2023-04-24T12:43:15;13.80;99.90
27224;DHT22;14965;50.660;13.226;2023-04-24T12:45:43;14.10;99.90
27224;DHT22;14965;50.660;13.226;2023-04-24T12:48:10;14.30;99.90
27224;DHT22;14965;50.660;13.226;2023-04-24T12:50:38;14.50;99.90
27224;DHT22;14965;50.660;13.226;2023-04-24T12:53:07;14.70;99.90
27224;DHT22;14965;50.660;13.226;2023-04-24T12:55:37;14.90;99.40
27224;DHT22;14965;50.660;13.226;2023-04-24T12:58:04;14.80;98.10
27224;DHT22;14965;50.660;13.226;2023-04-24T13:00:32;14.70;99.30
27224;DHT22;14965;50.660;13.226;2023-04-24T13:02:59;14.40;97.30
27224;DHT22;14965;50.660;13.226;2023-04-24T13:05:26;14.10;97.00
27224;DHT22;14965;50.660;13.226;2023-04-24T13:07:52;13.90;98.70
27224;DHT22;14965;50.660;13.226;2023-04-24T13:10:18;13.80;97.70
27224;DHT22;14965;50.660;13.226;2023-04-24T13:12:45;13.70;99.50
27224;DHT22;14965;50.660;13.226;2023-04-24T13:15:12;13.60;98.30
27224;DHT22;14965;50.660;13.226;2023-04-24T13:17:40;13.60;99.10
27224;DHT22;14965;50.660;13.226;2023-04-24T13:20:06;13.50;99.00
27224;DHT22;14965;50.660;13.226;2023-04-24T13:22:34;13.70;99.90
27224;DHT22;14965;50.660;13.226;2023-04-24T13:25:01;13.90;97.90
27224;DHT22;14965;50.660;13.226;2023-04-24T13:27:28;14.00;99.10
27224;DHT22;14965;50.660;13.226;2023-04-24T13:29:54;14.00;98.70
27224;DHT22;14965;50.660;13.226;2023-04-24T13:32:20;14.10;98.80
27224;DHT22;14965;50.660;13.226;2023-04-24T13:34:47;14.00;98.40
27224;DHT22;14965;50.660;13.226;2023-04-24T13:37:13;13.70;97.90
27224;DHT22;14965;50.660;13.226;2023-04-24T13:40:29;13.50;99.90
27224;DHT22;14965;50.660;13.226;2023-04-24T13:42:56;13.30;99.30
27224;DHT22;14965;50.660;13.226;2023-04-24T13:45:31;13.40;99.90
27224;DHT22;14965;50.660;13.226;2023-04-24T13:47:59;13.50;99.90
27224;DHT22;14965;50.660;13.226;2023-04-24T13:50:26;13.70;99.90
27224;DHT22;14965;50.660;13.226;2023-04-24T13:52:52;13.80;99.00
27224;DHT22;14965;50.660;13.226;2023-04-24T13:55:18;13.90;99.90
27224;DHT22;14965;50.660;13.226;2023-04-24T13:57:44;14.10;99.90
27224;DHT22;14965;50.660;13.226;2023-04-24T14:00:10;14.00;98.00
27224;DHT22;14965;50.660;13.226;2023-04-24T14:02:37;13.70;97.40
27224;DHT22;14965;50.660;13.226;2023-04-24T14:05:03;13.40;99.30
27224;DHT22;14965;50.660;13.226;2023-04-24T14:07:31;13.40;99.60
27224;DHT22;14965;50.660;13.226;2023-04-24T14:09:56;13.30;99.90
27224;DHT22;14965;50.660;13.226;2023-04-24T14:12:22;13.30;99.90
27224;DHT22;14965;50.660;13.226;2023-04-24T14:14:48;13.20;99.90
27224;DHT22;14965;50.660;13.226;2023-04-24T14:17:14;13.10;99.90
27224;DHT22;14965;50.660;13.226;2023-04-24T14:19:41;13.10;99.90
27224;DHT22;14965;50.660;13.226;2023-04-24T14:22:07;13.20;99.90
27224;DHT22;14965;50.660;13.226;2023-04-24T14:24:34;13.30;99.90
27224;DHT22;14965;50.660;13.226;2023-04-24T14:27:00;13.20;99.90
27224;DHT22;14965;50.660;13.226;2023-04-24T14:29:26;13.10;99.90
27224;DHT22;14965;50.660;13.226;2023-04-24T14:31:52;13.10;99.90
27224;DHT22;14965;50.660;13.226;2023-04-24T14:34:18;13.00;99.90
27224;DHT22;14965;50.660;13.226;2023-04-24T14:36:44;12.90;99.90
27224;DHT22;14965;50.660;13.226;2023-04-24T14:39:10;12.80;99.90
27224;DHT22;14965;50.660;13.226;2023-04-24T14:41:37;12.80;99.90
27224;DHT22;14965;50.660;13.226;2023-04-24T14:44:03;12.70;99.90
27224;DHT22;14965;50.660;13.226;2023-04-24T14:46:29;12.70;99.90
27224;DHT22;14965;50.660;13.226;2023-04-24T14:48:55;12.60;99.90
27224;DHT22;14965;50.660;13.226;2023-04-24T14:51:21;12.70;99.90
27224;DHT22;14965;50.660;13.226;2023-04-24T14:53:47;12.50;99.90
27224;DHT22;14965;50.660;13.226;2023-04-24T14:56:13;12.40;99.90
27224;DHT22;14965;50.660;13.226;2023-04-24T14:58:41;12.40;99.90
27224;DHT22;14965;50.660;13.226;2023-04-24T15:01:07;12.50;99.90
27224;DHT22;14965;50.660;13.226;2023-04-24T15:03:33;12.50;99.90
27224;DHT22;14965;50.660;13.226;2023-04-24T15:06:02;12.50;99.90
27224;DHT22;14965;50.660;13.226;2023-04-24T15:08:28;12.40;99.90
27224;DHT22;14965;50.660;13.226;2023-04-24T15:10:56;12.50;99.90
27224;DHT22;14965;50.660;13.226;2023-04-24T15:13:22;12.60;99.90
27224;DHT22;14965;50.660;13.226;2023-04-24T15:15:50;12.60;99.90
27224;DHT22;14965;50.660;13.226;2023-04-24T15:18:16;12.60;99.90
27224;DHT22;14965;50.660;13.226;2023-04-24T15:20:42;12.70;99.90
27224;DHT22;14965;50.660;13.226;2023-04-24T15:23:08;12.70;99.90
27224;DHT22;14965;50.660;13.226;2023-04-24T15:25:35;12.70;99.90
27224;DHT22;14965;50.660;13.226;2023-04-24T15:28:01;12.60;99.90
27224;DHT22;14965;50.660;13.226;2023-04-24T15:30:27;12.40;99.90
27224;DHT22;14965;50.660;13.226;2023-04-24T15:32:54;12.40;99.90
27224;DHT22;14965;50.660;13.226;2023-04-24T15:35:20;12.20;99.90
27224;DHT22;14965;50.660;13.226;2023-04-24T15:37:46;12.10;99.90
27224;DHT22;14965;50.660;13.226;2023-04-24T15:40:12;11.90;99.90
27224;DHT22;14965;50.660;13.226;2023-04-24T15:42:39;11.80;99.90
27224;DHT22;14965;50.660;13.226;2023-04-24T15:45:05;11.70;99.90
27224;DHT22;14965;50.660;13.226;2023-04-24T15:47:32;11.70;99.90
27224;DHT22;14965;50.660;13.226;2023-04-24T15:49:59;11.60;99.90
27224;DHT22;14965;50.660;13.226;2023-04-24T15:52:25;11.70;99.90
27224;DHT22;14965;50.660;13.226;2023-04-24T15:54:51;11.70;99.90
27224;DHT22;14965;50.660;13.226;2023-04-24T15:57:17;11.80;99.90
27224;DHT22;14965;50.660;13.226;2023-04-24T15:59:43;11.80;99.90
27224;DHT22;14965;50.660;13.226;2023-04-24T16:02:12;11.80;99.90
27224;DHT22;14965;50.660;13.226;2023-04-24T16:04:39;11.80;99.90
27224;DHT22;14965;50.660;13.226;2023-04-24T16:07:06;12.00;99.90
27224;DHT22;14965;50.660;13.226;2023-04-24T16:09:32;12.00;99.90
27224;DHT22;14965;50.660;13.226;2023-04-24T16:11:58;11.90;99.90
27224;DHT22;14965;50.660;13.226;2023-04-24T16:14:24;11.80;99.90
27224;DHT22;14965;50.660;13.226;2023-04-24T16:16:49;11.80;99.90
27224;DHT22;14965;50.660;13.226;2023-04-24T16:19:15;11.70;99.90
27224;DHT22;14965;50.660;13.226;2023-04-24T16:21:41;11.70;99.90
27224;DHT22;14965;50.660;13.226;2023-04-24T16:24:08;11.60;99.90
27224;DHT22;14965;50.660;13.226;2023-04-24T16:26:34;11.50;99.90
27224;DHT22;14965;50.660;13.226;2023-04-24T16:29:00;11.40;99.90
27224;DHT22;14965;50.660;13.226;2023-04-24T16:31:26;11.30;99.90
27224;DHT22;14965;50.660;13.226;2023-04-24T16:33:52;11.20;99.90
27224;DHT22;14965;50.660;13.226;2023-04-24T16:36:17;11.10;99.90
27224;DHT22;14965;50.660;13.226;2023-04-24T16:38:43;11.00;99.90
27224;DHT22;14965;50.660;13.226;2023-04-24T16:41:10;10.90;99.90
27224;DHT22;14965;50.660;13.226;2023-04-24T16:43:36;10.90;99.90
27224;DHT22;14965;50.660;13.226;2023-04-24T16:46:02;10.80;99.90
27224;DHT22;14965;50.660;13.226;2023-04-24T16:48:28;10.80;99.90
27224;DHT22;14965;50.660;13.226;2023-04-24T16:50:54;10.80;99.90
27224;DHT22;14965;50.660;13.226;2023-04-24T16:53:20;10.80;99.90
27224;DHT22;14965;50.660;13.226;2023-04-24T16:55:46;10.80;99.90
27224;DHT22;14965;50.660;13.226;2023-04-24T16:58:13;10.80;99.90
27224;DHT22;14965;50.660;13.226;2023-04-24T17:00:39;10.80;99.90
27224;DHT22;14965;50.660;13.226;2023-04-24T17:03:05;10.80;99.90
27224;DHT22;14965;50.660;13.226;2023-04-24T17:05:31;10.80;99.90
27224;DHT22;14965;50.660;13.226;2023-04-24T17:07:57;10.70;99.90
27224;DHT22;14965;50.660;13.226;2023-04-24T17:10:23;10.60;99.90
27224;DHT22;14965;50.660;13.226;2023-04-24T17:12:49;10.60;99.90
27224;DHT22;14965;50.660;13.226;2023-04-24T17:15:17;10.70;99.90
27224;DHT22;14965;50.660;13.226;2023-04-24T17:17:43;10.80;99.90
27224;DHT22;14965;50.660;13.226;2023-04-24T17:20:09;10.80;99.90
27224;DHT22;14965;50.660;13.226;2023-04-24T17:22:35;10.80;99.90
27224;DHT22;14965;50.660;13.226;2023-04-24T17:25:01;10.70;99.90
27224;DHT22;14965;50.660;13.226;2023-04-24T17:27:27;10.70;99.90
27224;DHT22;14965;50.660;13.226;2023-04-24T17:29:53;10.60;99.90
27224;DHT22;14965;50.660;13.226;2023-04-24T17:32:20;10.60;99.90
27224;DHT22;14965;50.660;13.226;2023-04-24T17:34:46;10.50;99.90
27224;DHT22;14965;50.660;13.226;2023-04-24T17:37:12;10.50;99.90
27224;DHT22;14965;50.660;13.226;2023-04-24T17:39:38;10.40;99.90
27224;DHT22;14965;50.660;13.226;2023-04-24T17:42:04;10.30;99.90
27224;DHT22;14965;50.660;13.226;2023-04-24T17:44:30;10.20;99.90
27224;DHT22;14965;50.660;13.226;2023-04-24T17:46:56;10.20;99.90
27224;DHT22;14965;50.660;13.226;2023-04-24T17:49:23;10.20;99.90
27224;DHT22;14965;50.660;13.226;2023-04-24T17:51:49;10.20;99.90
27224;DHT22;14965;50.660;13.226;2023-04-24T17:54:15;10.10;99.90
27224;DHT22;14965;50.660;13.226;2023-04-24T17:56:41;10.10;99.90
27224;DHT22;14965;50.660;13.226;2023-04-24T17:59:06;10.10;99.90
27224;DHT22;14965;50.660;13.226;2023-04-24T18:01:32;10.00;99.90
27224;DHT22;14965;50.660;13.226;2023-04-24T18:03:58;10.00;99.90
27224;DHT22;14965;50.660;13.226;2023-04-24T18:06:25;9.90;99.90
27224;DHT22;14965;50.660;13.226;2023-04-24T18:08:51;9.70;99.90
27224;DHT22;14965;50.660;13.226;2023-04-24T18:11:17;9.50;99.90
27224;DHT22;14965;50.660;13.226;2023-04-24T18:13:43;9.30;99.90